Time;durP1;ratioP1;P1;durP2;ratioP2;P2;SDS_P1;SDS_P2;PMS_P1;PMS_P2;Temp;Humidity;BMP_temperature;BMP_pressure;BME280_temperature;BME280_humidity;BME280_pressure;Samples;Min_cycle;Max_cycle;Signal;HPM_P1;HPM_P2
2021/09/14 00:00:11;;;;;;;14.65;13.3;;;;;;;13.93;89.34766;95268.72;;;;
2021/09/14 00:01:13;;;;;;;14.65;13.3;;;;;;;13.93;89.34766;95268.72;;;;
2021/09/14 00:02:14;;;;;;;14.65;13.3;;;;;;;13.93;89.34766;95268.72;;;;
2021/09/14 00:03:14;;;;;;;14.65;13.3;;;;;;;13.93;89.34766;95268.72;;;;
2021/09/14 00:04:15;;;;;;;15.7;14.25;;;;;;;13.91;89.55664;95266.38;;;;
2021/09/14 00:05:15;;;;;;;15.7;14.25;;;;;;;13.91;89.55664;95266.38;;;;
2021/09/14 00:06:16;;;;;;;15.7;14.25;;;;;;;13.91;89.55664;95266.38;;;;
2021/09/14 00:07:16;;;;;;;15.7;14.25;;;;;;;13.91;89.55664;95266.38;;;;
2021/09/14 00:08:17;;;;;;;15.7;14.25;;;;;;;13.91;89.55664;95266.38;;;;
2021/09/14 00:09:17;;;;;;;15.7;14.25;;;;;;;13.91;89.55664;95266.38;;;;
2021/09/14 00:10:18;;;;;;;15.7;14.25;;;;;;;13.91;89.55664;95266.38;;;;
2021/09/14 00:11:19;;;;;;;15.7;14.25;;;;;;;13.91;89.55664;95266.38;;;;
2021/09/14 00:12:19;;;;;;;15.7;14.25;;;;;;;13.91;89.55664;95266.38;;;;
2021/09/14 00:13:20;;;;;;;15.7;14.25;;;;;;;13.91;89.55664;95266.38;;;;
2021/09/14 00:14:20;;;;;;;15.7;14.25;;;;;;;13.91;89.55664;95266.38;;;;
2021/09/14 00:15:21;;;;;;;15.7;14.25;;;;;;;13.91;89.55664;95266.38;;;;
2021/09/14 00:16:21;;;;;;;15.7;14.25;;;;;;;13.91;89.55664;95266.38;;;;
2021/09/14 00:17:22;;;;;;;15.7;14.25;;;;;;;13.91;89.55664;95266.38;;;;
2021/09/14 00:18:22;;;;;;;15.7;14.25;;;;;;;13.91;89.55664;95266.38;;;;
2021/09/14 00:19:23;;;;;;;15.7;14.25;;;;;;;13.91;89.55664;95266.38;;;;
2021/09/14 00:20:23;;;;;;;15.7;14.25;;;;;;;13.91;89.55664;95266.38;;;;
2021/09/14 00:21:24;;;;;;;15.7;14.25;;;;;;;13.91;89.55664;95266.38;;;;
2021/09/14 00:22:24;;;;;;;15.7;14.25;;;;;;;13.91;89.55664;95266.38;;;;
2021/09/14 00:23:25;;;;;;;15.7;14.25;;;;;;;13.91;89.55664;95266.38;;;;
2021/09/14 00:24:25;;;;;;;15.7;14.25;;;;;;;13.91;89.55664;95266.38;;;;
2021/09/14 00:25:26;;;;;;;16.5;14.95;;;;;;;13.84;90.51074;95257.09;;;;
2021/09/14 00:26:26;;;;;;;16.5;14.95;;;;;;;13.84;90.51074;95257.09;;;;
2021/09/14 00:27:27;;;;;;;16.5;14.95;;;;;;;13.84;90.51074;95257.09;;;;
2021/09/14 00:28:27;;;;;;;16.5;14.95;;;;;;;13.84;90.51074;95257.09;;;;
2021/09/14 00:29:28;;;;;;;16.5;14.95;;;;;;;13.84;90.51074;95257.09;;;;
2021/09/14 00:30:28;;;;;;;16.5;14.95;;;;;;;13.84;90.51074;95257.09;;;;
2021/09/14 00:31:29;;;;;;;16.5;14.95;;;;;;;13.84;90.51074;95257.09;;;;
2021/09/14 00:32:29;;;;;;;16.5;14.95;;;;;;;13.84;90.51074;95257.09;;;;
2021/09/14 00:33:30;;;;;;;16.5;14.95;;;;;;;13.84;90.51074;95257.09;;;;
2021/09/14 00:34:30;;;;;;;16.5;14.95;;;;;;;13.84;90.51074;95257.09;;;;
2021/09/14 00:35:31;;;;;;;16.5;14.95;;;;;;;13.84;90.51074;95257.09;;;;
2021/09/14 00:36:32;;;;;;;16.8;15.25;;;;;;;13.9;90.89746;95251.59;;;;
2021/09/14 00:37:32;;;;;;;16.8;15.25;;;;;;;13.9;90.89746;95251.59;;;;
2021/09/14 00:38:32;;;;;;;16.8;15.25;;;;;;;13.9;90.89746;95251.59;;;;
2021/09/14 00:39:33;;;;;;;16.8;15.25;;;;;;;13.9;90.89746;95251.59;;;;
2021/09/14 00:40:33;;;;;;;16.8;15.25;;;;;;;13.9;90.89746;95251.59;;;;
2021/09/14 00:41:34;;;;;;;16.8;15.25;;;;;;;13.9;90.89746;95251.59;;;;
2021/09/14 00:42:34;;;;;;;16.8;15.25;;;;;;;13.9;90.89746;95251.59;;;;
2021/09/14 00:43:35;;;;;;;16.8;15.25;;;;;;;13.9;90.89746;95251.59;;;;
2021/09/14 00:44:36;;;;;;;16.8;15.25;;;;;;;13.9;90.89746;95251.59;;;;
2021/09/14 00:45:36;;;;;;;16.8;15.25;;;;;;;13.9;90.89746;95251.59;;;;
2021/09/14 00:46:37;;;;;;;16.8;15.25;;;;;;;13.9;90.89746;95251.59;;;;
2021/09/14 00:47:37;;;;;;;16.2;14.5;;;;;;;13.95;91.19727;95247.99;;;;
2021/09/14 00:48:38;;;;;;;16.2;14.5;;;;;;;13.95;91.19727;95247.99;;;;
2021/09/14 00:49:38;;;;;;;16.2;14.5;;;;;;;13.95;91.19727;95247.99;;;;
2021/09/14 00:50:39;;;;;;;16.2;14.5;;;;;;;13.95;91.19727;95247.99;;;;
2021/09/14 00:51:39;;;;;;;16.2;14.5;;;;;;;13.95;91.19727;95247.99;;;;
2021/09/14 00:52:40;;;;;;;16.2;14.5;;;;;;;13.95;91.19727;95247.99;;;;
2021/09/14 00:53:42;;;;;;;16.2;14.5;;;;;;;13.95;91.19727;95247.99;;;;
2021/09/14 00:54:43;;;;;;;16.2;14.5;;;;;;;13.95;91.19727;95247.99;;;;
2021/09/14 00:55:44;;;;;;;16.2;14.5;;;;;;;13.95;91.19727;95247.99;;;;
2021/09/14 00:56:45;;;;;;;16.2;14.5;;;;;;;13.95;91.19727;95247.99;;;;
2021/09/14 00:57:46;;;;;;;14.7;13.35;;;;;;;13.91;91.5752;95237.34;;;;
2021/09/14 00:58:48;;;;;;;14.7;13.35;;;;;;;13.91;91.5752;95237.34;;;;
2021/09/14 00:59:48;;;;;;;14.7;13.35;;;;;;;13.91;91.5752;95237.34;;;;
2021/09/14 01:00:49;;;;;;;14.7;13.35;;;;;;;13.91;91.5752;95237.34;;;;
2021/09/14 01:01:49;;;;;;;14.7;13.35;;;;;;;13.91;91.5752;95237.34;;;;
2021/09/14 01:02:52;;;;;;;14.7;13.35;;;;;;;13.91;91.5752;95237.34;;;;
2021/09/14 01:03:53;;;;;;;14.7;13.35;;;;;;;13.91;91.5752;95237.34;;;;
2021/09/14 01:04:53;;;;;;;14.7;13.35;;;;;;;13.91;91.5752;95237.34;;;;
2021/09/14 01:05:54;;;;;;;14.7;13.35;;;;;;;13.91;91.5752;95237.34;;;;
2021/09/14 01:06:54;;;;;;;14.7;13.35;;;;;;;13.91;91.5752;95237.34;;;;
2021/09/14 01:07:55;;;;;;;14.7;13.35;;;;;;;13.91;91.5752;95237.34;;;;
2021/09/14 01:08:56;;;;;;;15.15;13.75;;;;;;;13.82;92.00586;95235.35;;;;
2021/09/14 01:10:00;;;;;;;15.15;13.75;;;;;;;13.82;92.00586;95235.35;;;;
2021/09/14 01:11:01;;;;;;;15.15;13.75;;;;;;;13.82;92.00586;95235.35;;;;
2021/09/14 01:12:02;;;;;;;15.15;13.75;;;;;;;13.82;92.00586;95235.35;;;;
2021/09/14 01:13:04;;;;;;;15.15;13.75;;;;;;;13.82;92.00586;95235.35;;;;
2021/09/14 01:14:04;;;;;;;15.15;13.75;;;;;;;13.82;92.00586;95235.35;;;;
2021/09/14 01:15:07;;;;;;;15.15;13.75;;;;;;;13.82;92.00586;95235.35;;;;
2021/09/14 01:16:11;;;;;;;15.15;13.75;;;;;;;13.82;92.00586;95235.35;;;;
2021/09/14 01:17:11;;;;;;;15.15;13.75;;;;;;;13.82;92.00586;95235.35;;;;
2021/09/14 01:18:12;;;;;;;15.15;13.75;;;;;;;13.82;92.00586;95235.35;;;;
2021/09/14 01:19:12;;;;;;;14.5;13.2;;;;;;;13.71;92.48828;95228.59;;;;
2021/09/14 01:20:13;;;;;;;14.5;13.2;;;;;;;13.71;92.48828;95228.59;;;;
2021/09/14 01:21:13;;;;;;;14.5;13.2;;;;;;;13.71;92.48828;95228.59;;;;
2021/09/14 01:22:18;;;;;;;14.5;13.2;;;;;;;13.71;92.48828;95228.59;;;;
2021/09/14 01:23:19;;;;;;;14.5;13.2;;;;;;;13.71;92.48828;95228.59;;;;
2021/09/14 01:24:19;;;;;;;14.5;13.2;;;;;;;13.71;92.48828;95228.59;;;;
2021/09/14 01:25:20;;;;;;;14.5;13.2;;;;;;;13.71;92.48828;95228.59;;;;
2021/09/14 01:26:23;;;;;;;14.5;13.2;;;;;;;13.71;92.48828;95228.59;;;;
2021/09/14 01:27:24;;;;;;;14.5;13.2;;;;;;;13.71;92.48828;95228.59;;;;
2021/09/14 01:28:24;;;;;;;14.5;13.2;;;;;;;13.71;92.48828;95228.59;;;;
2021/09/14 01:30:30;;;;;;;14.1;12.8;;;;;;;13.6;92.89551;95231.75;;;;
2021/09/14 01:31:31;;;;;;;14.1;12.8;;;;;;;13.6;92.89551;95231.75;;;;
2021/09/14 01:32:31;;;;;;;14.1;12.8;;;;;;;13.6;92.89551;95231.75;;;;
2021/09/14 01:33:32;;;;;;;14.1;12.8;;;;;;;13.6;92.89551;95231.75;;;;
2021/09/14 01:34:33;;;;;;;14.1;12.8;;;;;;;13.6;92.89551;95231.75;;;;
2021/09/14 01:35:34;;;;;;;14.1;12.8;;;;;;;13.6;92.89551;95231.75;;;;
2021/09/14 01:36:34;;;;;;;14.1;12.8;;;;;;;13.6;92.89551;95231.75;;;;
2021/09/14 01:37:35;;;;;;;14.1;12.8;;;;;;;13.6;92.89551;95231.75;;;;
2021/09/14 01:38:35;;;;;;;14.1;12.8;;;;;;;13.6;92.89551;95231.75;;;;
2021/09/14 01:39:36;;;;;;;14.1;12.8;;;;;;;13.6;92.89551;95231.75;;;;
2021/09/14 01:40:36;;;;;;;13.9;12.55;;;;;;;13.5;93.24902;95228;;;;
2021/09/14 01:41:37;;;;;;;13.9;12.55;;;;;;;13.5;93.24902;95228;;;;
2021/09/14 01:42:37;;;;;;;13.9;12.55;;;;;;;13.5;93.24902;95228;;;;
2021/09/14 01:43:39;;;;;;;13.9;12.55;;;;;;;13.5;93.24902;95228;;;;
2021/09/14 01:44:40;;;;;;;13.9;12.55;;;;;;;13.5;93.24902;95228;;;;
2021/09/14 01:45:40;;;;;;;13.9;12.55;;;;;;;13.5;93.24902;95228;;;;
2021/09/14 01:46:42;;;;;;;13.9;12.55;;;;;;;13.5;93.24902;95228;;;;
2021/09/14 01:47:42;;;;;;;13.9;12.55;;;;;;;13.5;93.24902;95228;;;;
2021/09/14 01:48:44;;;;;;;13.9;12.55;;;;;;;13.5;93.24902;95228;;;;
2021/09/14 01:49:44;;;;;;;13.9;12.55;;;;;;;13.5;93.24902;95228;;;;
2021/09/14 01:50:46;;;;;;;13.65;12.35;;;;;;;13.42;93.62695;95229.38;;;;
2021/09/14 01:51:46;;;;;;;13.65;12.35;;;;;;;13.42;93.62695;95229.38;;;;
2021/09/14 01:52:47;;;;;;;13.65;12.35;;;;;;;13.42;93.62695;95229.38;;;;
2021/09/14 01:53:53;;;;;;;13.65;12.35;;;;;;;13.42;93.62695;95229.38;;;;
2021/09/14 01:54:53;;;;;;;13.65;12.35;;;;;;;13.42;93.62695;95229.38;;;;
2021/09/14 01:55:56;;;;;;;13.65;12.35;;;;;;;13.42;93.62695;95229.38;;;;
2021/09/14 01:56:57;;;;;;;13.65;12.35;;;;;;;13.42;93.62695;95229.38;;;;
2021/09/14 01:57:58;;;;;;;13.65;12.35;;;;;;;13.42;93.62695;95229.38;;;;
2021/09/14 01:58:59;;;;;;;13.65;12.35;;;;;;;13.42;93.62695;95229.38;;;;
2021/09/14 02:00:01;;;;;;;13.65;12.35;;;;;;;13.42;93.62695;95229.38;;;;
2021/09/14 02:01:07;;;;;;;13.65;12.35;;;;;;;13.42;93.62695;95229.38;;;;
2021/09/14 02:02:12;;;;;;;14.3;12.85;;;;;;;13.33;93.92969;95231.32;;;;
2021/09/14 02:03:22;;;;;;;14.3;12.85;;;;;;;13.33;93.92969;95231.32;;;;
2021/09/14 02:04:34;;;;;;;14.3;12.85;;;;;;;13.33;93.92969;95231.32;;;;
2021/09/14 02:05:50;;;;;;;14.3;12.85;;;;;;;13.33;93.92969;95231.32;;;;
2021/09/14 02:07:15;;;;;;;14.3;12.85;;;;;;;13.33;93.92969;95231.32;;;;
2021/09/14 02:08:27;;;;;;;14.3;12.85;;;;;;;13.33;93.92969;95231.32;;;;
2021/09/14 02:41:32;;;;;;;14.5;13.15;;;;;;;13.35;95.04688;95238.67;;;;
2021/09/14 02:42:43;;;;;;;14.5;13.15;;;;;;;13.35;95.04688;95238.67;;;;
2021/09/14 02:43:57;;;;;;;14.5;13.15;;;;;;;13.35;95.04688;95238.67;;;;
2021/09/14 02:56:13;;;;;;;12.85;11.75;;;;;;;13.34;95.26953;95236.63;;;;
2021/09/14 03:02:24;;;;;;;12.85;11.75;;;;;;;13.34;95.26953;95236.63;;;;
2021/09/14 03:03:24;;;;;;;12.85;11.75;;;;;;;13.34;95.26953;95236.63;;;;
2021/09/14 03:04:25;;;;;;;12.85;11.75;;;;;;;13.34;95.26953;95236.63;;;;
2021/09/14 03:05:28;;;;;;;13.05;11.85;;;;;;;13.2;95.75098;95231.84;;;;
2021/09/14 03:06:28;;;;;;;13.05;11.85;;;;;;;13.2;95.75098;95231.84;;;;
2021/09/14 03:07:28;;;;;;;13.05;11.85;;;;;;;13.2;95.75098;95231.84;;;;
2021/09/14 03:08:29;;;;;;;13.05;11.85;;;;;;;13.2;95.75098;95231.84;;;;
2021/09/14 03:09:29;;;;;;;13.05;11.85;;;;;;;13.2;95.75098;95231.84;;;;
2021/09/14 03:10:30;;;;;;;13.05;11.85;;;;;;;13.2;95.75098;95231.84;;;;
2021/09/14 03:11:30;;;;;;;13.05;11.85;;;;;;;13.2;95.75098;95231.84;;;;
2021/09/14 03:12:31;;;;;;;13.05;11.85;;;;;;;13.2;95.75098;95231.84;;;;
2021/09/14 03:13:31;;;;;;;13.05;11.85;;;;;;;13.2;95.75098;95231.84;;;;
2021/09/14 03:14:32;;;;;;;13.05;11.85;;;;;;;13.2;95.75098;95231.84;;;;
2021/09/14 03:15:33;;;;;;;13.05;11.85;;;;;;;13.2;95.75098;95231.84;;;;
2021/09/14 03:16:33;;;;;;;13.1;11.9;;;;;;;13.08;95.9834;95233.31;;;;
2021/09/14 03:17:34;;;;;;;13.1;11.9;;;;;;;13.08;95.9834;95233.31;;;;
2021/09/14 03:18:35;;;;;;;13.1;11.9;;;;;;;13.08;95.9834;95233.31;;;;
2021/09/14 03:19:37;;;;;;;13.1;11.9;;;;;;;13.08;95.9834;95233.31;;;;
2021/09/14 03:20:37;;;;;;;13.1;11.9;;;;;;;13.08;95.9834;95233.31;;;;
2021/09/14 03:21:38;;;;;;;13.1;11.9;;;;;;;13.08;95.9834;95233.31;;;;
2021/09/14 03:22:38;;;;;;;13.1;11.9;;;;;;;13.08;95.9834;95233.31;;;;
2021/09/14 03:23:39;;;;;;;13.1;11.9;;;;;;;13.08;95.9834;95233.31;;;;
2021/09/14 03:24:39;;;;;;;13.1;11.9;;;;;;;13.08;95.9834;95233.31;;;;
2021/09/14 03:25:40;;;;;;;13.1;11.9;;;;;;;13.08;95.9834;95233.31;;;;
2021/09/14 03:26:40;;;;;;;14.3;13;;;;;;;12.94;96.24316;95228.8;;;;
2021/09/14 03:27:41;;;;;;;14.3;13;;;;;;;12.94;96.24316;95228.8;;;;
2021/09/14 03:28:42;;;;;;;14.3;13;;;;;;;12.94;96.24316;95228.8;;;;
2021/09/14 03:29:42;;;;;;;14.3;13;;;;;;;12.94;96.24316;95228.8;;;;
2021/09/14 03:30:42;;;;;;;14.3;13;;;;;;;12.94;96.24316;95228.8;;;;
2021/09/14 03:31:43;;;;;;;14.3;13;;;;;;;12.94;96.24316;95228.8;;;;
2021/09/14 03:32:44;;;;;;;14.3;13;;;;;;;12.94;96.24316;95228.8;;;;
2021/09/14 03:33:45;;;;;;;14.3;13;;;;;;;12.94;96.24316;95228.8;;;;
2021/09/14 03:34:46;;;;;;;14.3;13;;;;;;;12.94;96.24316;95228.8;;;;
2021/09/14 03:35:46;;;;;;;14.3;13;;;;;;;12.94;96.24316;95228.8;;;;
2021/09/14 03:36:47;;;;;;;14.3;13;;;;;;;12.94;96.24316;95228.8;;;;
2021/09/14 03:37:48;;;;;;;13.3;12;;;;;;;12.82;96.61133;95224.98;;;;
2021/09/14 03:38:48;;;;;;;13.3;12;;;;;;;12.82;96.61133;95224.98;;;;
2021/09/14 03:39:49;;;;;;;13.3;12;;;;;;;12.82;96.61133;95224.98;;;;
2021/09/14 03:40:49;;;;;;;13.3;12;;;;;;;12.82;96.61133;95224.98;;;;
2021/09/14 03:41:50;;;;;;;13.3;12;;;;;;;12.82;96.61133;95224.98;;;;
2021/09/14 03:42:50;;;;;;;13.3;12;;;;;;;12.82;96.61133;95224.98;;;;
2021/09/14 03:43:51;;;;;;;13.3;12;;;;;;;12.82;96.61133;95224.98;;;;
2021/09/14 03:44:51;;;;;;;13.3;12;;;;;;;12.82;96.61133;95224.98;;;;
2021/09/14 03:45:52;;;;;;;13.3;12;;;;;;;12.82;96.61133;95224.98;;;;
2021/09/14 03:46:52;;;;;;;13.3;12;;;;;;;12.82;96.61133;95224.98;;;;
2021/09/14 03:47:53;;;;;;;13.3;12;;;;;;;12.82;96.61133;95224.98;;;;
2021/09/14 03:48:53;;;;;;;13.15;11.9;;;;;;;12.7;96.91406;95220.75;;;;
2021/09/14 03:49:54;;;;;;;13.15;11.9;;;;;;;12.7;96.91406;95220.75;;;;
2021/09/14 03:50:54;;;;;;;13.15;11.9;;;;;;;12.7;96.91406;95220.75;;;;
2021/09/14 03:51:55;;;;;;;13.15;11.9;;;;;;;12.7;96.91406;95220.75;;;;
2021/09/14 03:52:55;;;;;;;13.15;11.9;;;;;;;12.7;96.91406;95220.75;;;;
2021/09/14 03:53:56;;;;;;;13.15;11.9;;;;;;;12.7;96.91406;95220.75;;;;
2021/09/14 03:54:56;;;;;;;13.15;11.9;;;;;;;12.7;96.91406;95220.75;;;;
2021/09/14 03:55:57;;;;;;;13.15;11.9;;;;;;;12.7;96.91406;95220.75;;;;
2021/09/14 03:56:57;;;;;;;13.15;11.9;;;;;;;12.7;96.91406;95220.75;;;;
2021/09/14 03:57:58;;;;;;;13.15;11.9;;;;;;;12.7;96.91406;95220.75;;;;
2021/09/14 03:58:58;;;;;;;12.55;11.35;;;;;;;12.59;97.21094;95211.66;;;;
2021/09/14 03:59:59;;;;;;;12.55;11.35;;;;;;;12.59;97.21094;95211.66;;;;
2021/09/14 04:01:00;;;;;;;12.55;11.35;;;;;;;12.59;97.21094;95211.66;;;;
2021/09/14 04:02:00;;;;;;;12.55;11.35;;;;;;;12.59;97.21094;95211.66;;;;
2021/09/14 04:03:04;;;;;;;12.55;11.35;;;;;;;12.59;97.21094;95211.66;;;;
2021/09/14 04:04:11;;;;;;;12.55;11.35;;;;;;;12.59;97.21094;95211.66;;;;
2021/09/14 04:05:27;;;;;;;12.55;11.35;;;;;;;12.59;97.21094;95211.66;;;;
2021/09/14 04:06:41;;;;;;;12.55;11.35;;;;;;;12.59;97.21094;95211.66;;;;
2021/09/14 04:07:51;;;;;;;12.55;11.35;;;;;;;12.59;97.21094;95211.66;;;;
2021/09/14 04:08:52;;;;;;;12.55;11.35;;;;;;;12.59;97.21094;95211.66;;;;
2021/09/14 04:09:53;;;;;;;12.8;11.7;;;;;;;12.49;97.48926;95201.5;;;;
2021/09/14 04:10:56;;;;;;;12.8;11.7;;;;;;;12.49;97.48926;95201.5;;;;
2021/09/14 04:11:57;;;;;;;12.8;11.7;;;;;;;12.49;97.48926;95201.5;;;;
2021/09/14 04:12:57;;;;;;;12.8;11.7;;;;;;;12.49;97.48926;95201.5;;;;
2021/09/14 04:13:58;;;;;;;12.8;11.7;;;;;;;12.49;97.48926;95201.5;;;;
2021/09/14 04:14:58;;;;;;;12.8;11.7;;;;;;;12.49;97.48926;95201.5;;;;
2021/09/14 04:15:59;;;;;;;12.8;11.7;;;;;;;12.49;97.48926;95201.5;;;;
2021/09/14 04:17:00;;;;;;;12.8;11.7;;;;;;;12.49;97.48926;95201.5;;;;
2021/09/14 04:18:00;;;;;;;12.8;11.7;;;;;;;12.49;97.48926;95201.5;;;;
2021/09/14 04:19:01;;;;;;;12.8;11.7;;;;;;;12.49;97.48926;95201.5;;;;
2021/09/14 04:20:01;;;;;;;12.6;11.45;;;;;;;12.45;97.52344;95207.12;;;;
2021/09/14 04:21:03;;;;;;;12.6;11.45;;;;;;;12.45;97.52344;95207.12;;;;
2021/09/14 04:22:03;;;;;;;12.6;11.45;;;;;;;12.45;97.52344;95207.12;;;;
2021/09/14 04:23:04;;;;;;;12.6;11.45;;;;;;;12.45;97.52344;95207.12;;;;
2021/09/14 04:24:04;;;;;;;12.6;11.45;;;;;;;12.45;97.52344;95207.12;;;;
2021/09/14 04:25:05;;;;;;;12.6;11.45;;;;;;;12.45;97.52344;95207.12;;;;
2021/09/14 04:26:06;;;;;;;12.6;11.45;;;;;;;12.45;97.52344;95207.12;;;;
2021/09/14 04:27:07;;;;;;;12.6;11.45;;;;;;;12.45;97.52344;95207.12;;;;
2021/09/14 04:28:11;;;;;;;12.6;11.45;;;;;;;12.45;97.52344;95207.12;;;;
2021/09/14 04:29:11;;;;;;;12.6;11.45;;;;;;;12.45;97.52344;95207.12;;;;
2021/09/14 04:30:12;;;;;;;12.6;11.45;;;;;;;12.45;97.52344;95207.12;;;;
2021/09/14 04:31:12;;;;;;;12.45;11.2;;;;;;;12.41;97.45996;95208.26;;;;
2021/09/14 04:32:13;;;;;;;12.45;11.2;;;;;;;12.41;97.45996;95208.26;;;;
2021/09/14 04:33:14;;;;;;;12.45;11.2;;;;;;;12.41;97.45996;95208.26;;;;
2021/09/14 04:34:14;;;;;;;12.45;11.2;;;;;;;12.41;97.45996;95208.26;;;;
2021/09/14 04:35:14;;;;;;;12.45;11.2;;;;;;;12.41;97.45996;95208.26;;;;
2021/09/14 04:36:15;;;;;;;12.45;11.2;;;;;;;12.41;97.45996;95208.26;;;;
2021/09/14 04:37:15;;;;;;;12.45;11.2;;;;;;;12.41;97.45996;95208.26;;;;
2021/09/14 04:38:16;;;;;;;12.45;11.2;;;;;;;12.41;97.45996;95208.26;;;;
2021/09/14 04:39:17;;;;;;;12.45;11.2;;;;;;;12.41;97.45996;95208.26;;;;
2021/09/14 04:40:17;;;;;;;12.45;11.2;;;;;;;12.41;97.45996;95208.26;;;;
2021/09/14 04:41:18;;;;;;;12.45;11.2;;;;;;;12.41;97.45996;95208.26;;;;
2021/09/14 04:42:18;;;;;;;11.65;10.55;;;;;;;12.35;97.53223;95204.28;;;;
2021/09/14 04:43:19;;;;;;;11.65;10.55;;;;;;;12.35;97.53223;95204.28;;;;
2021/09/14 04:44:19;;;;;;;11.65;10.55;;;;;;;12.35;97.53223;95204.28;;;;
2021/09/14 04:45:20;;;;;;;11.65;10.55;;;;;;;12.35;97.53223;95204.28;;;;
2021/09/14 04:46:20;;;;;;;11.65;10.55;;;;;;;12.35;97.53223;95204.28;;;;
2021/09/14 04:47:21;;;;;;;11.65;10.55;;;;;;;12.35;97.53223;95204.28;;;;
2021/09/14 04:48:21;;;;;;;11.65;10.55;;;;;;;12.35;97.53223;95204.28;;;;
2021/09/14 04:49:21;;;;;;;11.65;10.55;;;;;;;12.35;97.53223;95204.28;;;;
2021/09/14 04:50:22;;;;;;;11.65;10.55;;;;;;;12.35;97.53223;95204.28;;;;
2021/09/14 04:51:22;;;;;;;11.65;10.55;;;;;;;12.35;97.53223;95204.28;;;;
2021/09/14 04:52:23;;;;;;;11.7;10.5;;;;;;;12.29;97.60352;95217.97;;;;
2021/09/14 04:53:23;;;;;;;11.7;10.5;;;;;;;12.29;97.60352;95217.97;;;;
2021/09/14 04:54:24;;;;;;;11.7;10.5;;;;;;;12.29;97.60352;95217.97;;;;
2021/09/14 04:55:24;;;;;;;11.7;10.5;;;;;;;12.29;97.60352;95217.97;;;;
2021/09/14 04:56:25;;;;;;;11.7;10.5;;;;;;;12.29;97.60352;95217.97;;;;
2021/09/14 04:57:25;;;;;;;11.7;10.5;;;;;;;12.29;97.60352;95217.97;;;;
2021/09/14 04:58:26;;;;;;;11.7;10.5;;;;;;;12.29;97.60352;95217.97;;;;
2021/09/14 04:59:26;;;;;;;11.7;10.5;;;;;;;12.29;97.60352;95217.97;;;;
2021/09/14 05:00:27;;;;;;;11.7;10.5;;;;;;;12.29;97.60352;95217.97;;;;
2021/09/14 05:01:27;;;;;;;11.7;10.5;;;;;;;12.29;97.60352;95217.97;;;;
2021/09/14 05:02:28;;;;;;;11.7;10.5;;;;;;;12.29;97.60352;95217.97;;;;
2021/09/14 05:03:28;;;;;;;12.9;11.2;;;;;;;12.28;97.80371;95218.64;;;;
2021/09/14 05:04:29;;;;;;;12.9;11.2;;;;;;;12.28;97.80371;95218.64;;;;
2021/09/14 05:05:29;;;;;;;12.9;11.2;;;;;;;12.28;97.80371;95218.64;;;;
2021/09/14 05:06:30;;;;;;;12.9;11.2;;;;;;;12.28;97.80371;95218.64;;;;
2021/09/14 05:07:30;;;;;;;12.9;11.2;;;;;;;12.28;97.80371;95218.64;;;;
2021/09/14 05:08:31;;;;;;;12.9;11.2;;;;;;;12.28;97.80371;95218.64;;;;
2021/09/14 05:09:31;;;;;;;12.9;11.2;;;;;;;12.28;97.80371;95218.64;;;;
2021/09/14 05:10:32;;;;;;;12.9;11.2;;;;;;;12.28;97.80371;95218.64;;;;
2021/09/14 05:11:33;;;;;;;12.9;11.2;;;;;;;12.28;97.80371;95218.64;;;;
2021/09/14 05:12:33;;;;;;;12.9;11.2;;;;;;;12.28;97.80371;95218.64;;;;
2021/09/14 05:13:34;;;;;;;13.95;12.6;;;;;;;12.33;97.97461;95208.29;;;;
2021/09/14 05:14:34;;;;;;;13.95;12.6;;;;;;;12.33;97.97461;95208.29;;;;
2021/09/14 05:15:35;;;;;;;13.95;12.6;;;;;;;12.33;97.97461;95208.29;;;;
2021/09/14 05:16:35;;;;;;;13.95;12.6;;;;;;;12.33;97.97461;95208.29;;;;
2021/09/14 05:17:36;;;;;;;13.95;12.6;;;;;;;12.33;97.97461;95208.29;;;;
2021/09/14 05:18:36;;;;;;;13.95;12.6;;;;;;;12.33;97.97461;95208.29;;;;
2021/09/14 05:19:38;;;;;;;13.95;12.6;;;;;;;12.33;97.97461;95208.29;;;;
2021/09/14 05:20:39;;;;;;;13.95;12.6;;;;;;;12.33;97.97461;95208.29;;;;
2021/09/14 05:21:45;;;;;;;13.95;12.6;;;;;;;12.33;97.97461;95208.29;;;;
2021/09/14 05:22:50;;;;;;;13.95;12.6;;;;;;;12.33;97.97461;95208.29;;;;
2021/09/14 05:23:50;;;;;;;13.95;12.6;;;;;;;12.33;97.97461;95208.29;;;;
2021/09/14 05:24:51;;;;;;;15.15;12.3;;;;;;;12.47;98.17676;95207.81;;;;
2021/09/14 05:25:51;;;;;;;15.15;12.3;;;;;;;12.47;98.17676;95207.81;;;;
2021/09/14 05:26:52;;;;;;;15.15;12.3;;;;;;;12.47;98.17676;95207.81;;;;
2021/09/14 05:27:52;;;;;;;15.15;12.3;;;;;;;12.47;98.17676;95207.81;;;;
2021/09/14 05:28:53;;;;;;;15.15;12.3;;;;;;;12.47;98.17676;95207.81;;;;
2021/09/14 05:29:53;;;;;;;15.15;12.3;;;;;;;12.47;98.17676;95207.81;;;;
2021/09/14 05:30:54;;;;;;;15.15;12.3;;;;;;;12.47;98.17676;95207.81;;;;
2021/09/14 05:31:55;;;;;;;15.15;12.3;;;;;;;12.47;98.17676;95207.81;;;;
2021/09/14 05:32:56;;;;;;;15.15;12.3;;;;;;;12.47;98.17676;95207.81;;;;
2021/09/14 05:33:57;;;;;;;15.15;12.3;;;;;;;12.47;98.17676;95207.81;;;;
2021/09/14 05:34:57;;;;;;;15.7;13.2;;;;;;;12.71;98.31641;95211.94;;;;
2021/09/14 05:35:58;;;;;;;15.7;13.2;;;;;;;12.71;98.31641;95211.94;;;;
2021/09/14 05:36:59;;;;;;;15.7;13.2;;;;;;;12.71;98.31641;95211.94;;;;
2021/09/14 05:38:00;;;;;;;15.7;13.2;;;;;;;12.71;98.31641;95211.94;;;;
2021/09/14 05:39:00;;;;;;;15.7;13.2;;;;;;;12.71;98.31641;95211.94;;;;
2021/09/14 05:40:01;;;;;;;15.7;13.2;;;;;;;12.71;98.31641;95211.94;;;;
2021/09/14 05:41:02;;;;;;;15.7;13.2;;;;;;;12.71;98.31641;95211.94;;;;
2021/09/14 05:42:02;;;;;;;15.7;13.2;;;;;;;12.71;98.31641;95211.94;;;;
2021/09/14 05:43:04;;;;;;;15.7;13.2;;;;;;;12.71;98.31641;95211.94;;;;
2021/09/14 05:44:04;;;;;;;15.7;13.2;;;;;;;12.71;98.31641;95211.94;;;;
2021/09/14 05:45:05;;;;;;;15.7;13.2;;;;;;;12.71;98.31641;95211.94;;;;
2021/09/14 05:46:06;;;;;;;13.35;12.05;;;;;;;13.08;98.45215;95212.05;;;;
2021/09/14 05:47:07;;;;;;;13.35;12.05;;;;;;;13.08;98.45215;95212.05;;;;
2021/09/14 05:48:07;;;;;;;13.35;12.05;;;;;;;13.08;98.45215;95212.05;;;;
2021/09/14 05:49:08;;;;;;;13.35;12.05;;;;;;;13.08;98.45215;95212.05;;;;
2021/09/14 05:50:08;;;;;;;13.35;12.05;;;;;;;13.08;98.45215;95212.05;;;;
2021/09/14 05:51:09;;;;;;;13.35;12.05;;;;;;;13.08;98.45215;95212.05;;;;
2021/09/14 05:52:10;;;;;;;13.35;12.05;;;;;;;13.08;98.45215;95212.05;;;;
2021/09/14 05:53:10;;;;;;;13.35;12.05;;;;;;;13.08;98.45215;95212.05;;;;
2021/09/14 05:54:11;;;;;;;13.35;12.05;;;;;;;13.08;98.45215;95212.05;;;;
2021/09/14 05:55:12;;;;;;;13.35;12.05;;;;;;;13.08;98.45215;95212.05;;;;
2021/09/14 05:56:12;;;;;;;14.5;13.2;;;;;;;13.47;98.3457;95205.05;;;;
2021/09/14 05:57:13;;;;;;;14.5;13.2;;;;;;;13.47;98.3457;95205.05;;;;
2021/09/14 05:58:13;;;;;;;14.5;13.2;;;;;;;13.47;98.3457;95205.05;;;;
2021/09/14 05:59:14;;;;;;;14.5;13.2;;;;;;;13.47;98.3457;95205.05;;;;
2021/09/14 06:00:14;;;;;;;14.5;13.2;;;;;;;13.47;98.3457;95205.05;;;;
2021/09/14 06:01:15;;;;;;;14.5;13.2;;;;;;;13.47;98.3457;95205.05;;;;
2021/09/14 06:02:16;;;;;;;14.5;13.2;;;;;;;13.47;98.3457;95205.05;;;;
2021/09/14 06:03:16;;;;;;;14.5;13.2;;;;;;;13.47;98.3457;95205.05;;;;
2021/09/14 06:04:17;;;;;;;14.5;13.2;;;;;;;13.47;98.3457;95205.05;;;;
2021/09/14 06:05:17;;;;;;;14.5;13.2;;;;;;;13.47;98.3457;95205.05;;;;
2021/09/14 06:06:18;;;;;;;14.5;13.2;;;;;;;13.47;98.3457;95205.05;;;;
2021/09/14 06:07:19;;;;;;;15.05;13.6;;;;;;;13.81;98.4209;95206.06;;;;
2021/09/14 06:08:20;;;;;;;15.05;13.6;;;;;;;13.81;98.4209;95206.06;;;;
2021/09/14 06:09:20;;;;;;;15.05;13.6;;;;;;;13.81;98.4209;95206.06;;;;
2021/09/14 06:10:21;;;;;;;15.05;13.6;;;;;;;13.81;98.4209;95206.06;;;;
2021/09/14 06:11:21;;;;;;;15.05;13.6;;;;;;;13.81;98.4209;95206.06;;;;
2021/09/14 06:12:22;;;;;;;15.05;13.6;;;;;;;13.81;98.4209;95206.06;;;;
2021/09/14 06:13:24;;;;;;;15.05;13.6;;;;;;;13.81;98.4209;95206.06;;;;
2021/09/14 06:14:24;;;;;;;15.05;13.6;;;;;;;13.81;98.4209;95206.06;;;;
2021/09/14 06:15:25;;;;;;;15.05;13.6;;;;;;;13.81;98.4209;95206.06;;;;
2021/09/14 06:16:25;;;;;;;15.05;13.6;;;;;;;13.81;98.4209;95206.06;;;;
2021/09/14 06:17:26;;;;;;;14.8;13.35;;;;;;;14.41;99.00586;95225.16;;;;
2021/09/14 06:18:26;;;;;;;14.8;13.35;;;;;;;14.41;99.00586;95225.16;;;;
2021/09/14 06:19:27;;;;;;;14.8;13.35;;;;;;;14.41;99.00586;95225.16;;;;
2021/09/14 06:20:27;;;;;;;14.8;13.35;;;;;;;14.41;99.00586;95225.16;;;;
2021/09/14 06:21:28;;;;;;;14.8;13.35;;;;;;;14.41;99.00586;95225.16;;;;
2021/09/14 06:22:28;;;;;;;14.8;13.35;;;;;;;14.41;99.00586;95225.16;;;;
2021/09/14 06:23:29;;;;;;;14.8;13.35;;;;;;;14.41;99.00586;95225.16;;;;
2021/09/14 06:24:29;;;;;;;14.8;13.35;;;;;;;14.41;99.00586;95225.16;;;;
2021/09/14 06:25:30;;;;;;;14.8;13.35;;;;;;;14.41;99.00586;95225.16;;;;
2021/09/14 06:26:30;;;;;;;14.8;13.35;;;;;;;14.41;99.00586;95225.16;;;;
2021/09/14 06:27:31;;;;;;;14.8;13.35;;;;;;;14.41;99.00586;95225.16;;;;
2021/09/14 06:28:32;;;;;;;11.5;10.4;;;;;;;15.38;98.51367;95227.33;;;;
2021/09/14 06:29:32;;;;;;;11.5;10.4;;;;;;;15.38;98.51367;95227.33;;;;
2021/09/14 06:30:33;;;;;;;11.5;10.4;;;;;;;15.38;98.51367;95227.33;;;;
2021/09/14 06:31:33;;;;;;;11.5;10.4;;;;;;;15.38;98.51367;95227.33;;;;
2021/09/14 06:32:34;;;;;;;11.5;10.4;;;;;;;15.38;98.51367;95227.33;;;;
2021/09/14 06:33:34;;;;;;;11.5;10.4;;;;;;;15.38;98.51367;95227.33;;;;